Big Bear Station Historical Data
Daily Summary for April 23, 2017 Units:  English    Metric   Both
« Previous Day
Next Day »
Daily Weekly Monthly Yearly Custom
  High: Low: Average:
Temperature: 66.4 °F 40.6 °F 53.6 °F
Dew Point: 41.7 °F 17.9 °F 30 °F
Humidity: 77 % 16 % 43 %
Wind Speed: 14.0 mph 0.0 mph 3.1 mph
Wind Gust: 21.2 mph - -
Wind:- - SW
Pressure: 30.12 in 30.01 in -
Precipitation: 0.04 in    
Historical Graphs
 
 
Tabular Data for April 23, 2017
Time Temperature Dew Point Pressure Wind Wind Speed Wind Gust Humidity Rainfall Rate (Hourly)
00:04 43.7 °F 33.1 °F 30.12 in South 1.7 mph -999.0 mph 66 % 0 in
00:20 43.2 °F 32.2 °F 30.12 in Calm   -999.0 mph 65 % 0 in
00:35 43.2 °F 29.4 °F 30.12 in South 2.2 mph -999.0 mph 58 % 0 in
00:50 44.1 °F 29.4 °F 30.12 in Calm   -999.0 mph 56 % 0 in
01:05 46.2 °F 28.1 °F 30.12 in SSE 2.2 mph -999.0 mph 49 % 0 in
01:20 46.6 °F 27.9 °F 30.11 in South 2.2 mph -999.0 mph 48 % 0 in
01:36 48.2 °F 28.4 °F 30.11 in Calm   -999.0 mph 46 % 0 in
01:51 47.5 °F 28.3 °F 30.10 in SSE 1.1 mph -999.0 mph 47 % 0 in
02:06 47.7 °F 28.4 °F 30.10 in Calm   -999.0 mph 47 % 0 in
02:21 47.8 °F 29.6 °F 30.09 in SSE 2.2 mph -999.0 mph 49 % 0 in
02:36 47.7 °F 28.4 °F 30.08 in ESE 1.7 mph -999.0 mph 47 % 0 in
02:52 48.0 °F 27.7 °F 30.08 in Calm   -999.0 mph 45 % 0 in
03:07 48.4 °F 28.0 °F 30.07 in SW 1.1 mph -999.0 mph 45 % 0 in
03:22 46.8 °F 28.6 °F 30.07 in SSE 2.2 mph -999.0 mph 49 % 0 in
03:37 46.2 °F 28.1 °F 30.07 in SSE 2.2 mph -999.0 mph 49 % 0 in
03:53 45.9 °F 28.3 °F 30.07 in Calm   -999.0 mph 50 % 0 in
04:08 45.9 °F 26.8 °F 30.07 in South 1.7 mph -999.0 mph 47 % 0 in
04:23 47.1 °F 24.6 °F 30.06 in NNW 3.7 mph -999.0 mph 41 % 0 in
04:38 49.5 °F 24.3 °F 30.06 in NW 6.3 mph -999.0 mph 37 % 0 in
04:53 50.0 °F 24.7 °F 30.05 in NW 5.8 mph -999.0 mph 37 % 0 in
05:09 50.4 °F 24.4 °F 30.05 in NW 3.7 mph -999.0 mph 36 % 0 in
05:24 50.2 °F 24.9 °F 30.05 in WNW 3.7 mph -999.0 mph 37 % 0 in
05:39 50.0 °F 25.4 °F 30.05 in NW 4.7 mph -999.0 mph 38 % 0 in
05:55 49.5 °F 24.9 °F 30.05 in West 1.7 mph -999.0 mph 38 % 0 in
06:10 49.3 °F 24.1 °F 30.05 in NNW 1.7 mph -999.0 mph 37 % 0 in
06:25 49.3 °F 24.1 °F 30.05 in NNW 2.7 mph -999.0 mph 37 % 0 in
06:40 49.3 °F 25.4 °F 30.05 in SE 1.1 mph -999.0 mph 39 % 0 in
06:55 49.3 °F 26.0 °F 30.07 in SSW 2.7 mph -999.0 mph 40 % 0 in
07:11 49.6 °F 24.4 °F 30.06 in SSW 2.7 mph -999.0 mph 37 % 0 in
07:26 50.2 °F 22.9 °F 30.06 in Calm   -999.0 mph 34 % 0 in
07:41 50.7 °F 21.9 °F 30.06 in NNW 4.7 mph -999.0 mph 32 % 0 in
07:56 50.9 °F 22.8 °F 30.05 in WNW 4.7 mph -999.0 mph 33 % 0 in
08:11 51.1 °F 21.5 °F 30.05 in WSW 1.7 mph -999.0 mph 31 % 0 in
08:27 53.1 °F 26.2 °F 30.06 in NW 8.3 mph -999.0 mph 35 % 0 in
08:42 54.7 °F 29.6 °F 30.06 in SW 2.7 mph -999.0 mph 38 % 0 in
08:58 55.4 °F 35.0 °F 30.06 in WSW 3.2 mph -999.0 mph 46 % 0 in
09:13 56.1 °F 37.7 °F 30.06 in South 3.2 mph -999.0 mph 50 % 0 in
09:28 56.1 °F 37.2 °F 30.06 in NE 5.3 mph -999.0 mph 49 % 0 in
09:43 56.7 °F 38.8 °F 30.06 in WNW 2.2 mph -999.0 mph 51 % 0 in
09:58 56.8 °F 38.4 °F 30.06 in NNW 4.7 mph -999.0 mph 50 % 0 in
10:14 57.2 °F 39.2 °F 30.07 in NNW 5.3 mph -999.0 mph 51 % 0 in
10:30 57.4 °F 38.9 °F 30.07 in WNW 4.7 mph 21.2 mph 50 % 0 in
10:45 58.8 °F 36.3 °F 30.07 in West 8.9 mph -999.0 mph 43 % 0 in
11:00 60.8 °F 37.6 °F 30.07 in NNW 8.9 mph -999.0 mph 42 % 0 in
11:15 61.3 °F 37.4 °F 30.07 in South 2.7 mph -999.0 mph 41 % 0 in
11:30 62.1 °F 38.1 °F 30.07 in WNW 2.7 mph -999.0 mph 41 % 0 in
11:46 61.5 °F 36.9 °F 30.07 in NW 14.0 mph -999.0 mph 40 % 0 in
12:01 62.4 °F 34.4 °F 30.07 in NE 2.7 mph -999.0 mph 35 % 0 in
12:16 63.9 °F 31.8 °F 30.07 in SSW 2.7 mph -999.0 mph 30 % 0 in
12:31 63.9 °F 30.1 °F 30.07 in WSW 5.8 mph -999.0 mph 28 % 0 in
12:46 63.7 °F 24.1 °F 30.07 in NW 5.3 mph -999.0 mph 22 % 0 in
13:02 65.1 °F 19.2 °F 30.06 in WNW 3.7 mph -999.0 mph 17 % 0 in
13:17 64.9 °F 20.4 °F 30.07 in WNW 2.7 mph -999.0 mph 18 % 0 in
13:32 65.1 °F 20.5 °F 30.07 in NNW 3.7 mph -999.0 mph 18 % 0 in
13:47 65.3 °F 17.9 °F 30.06 in West 7.3 mph -999.0 mph 16 % 0 in
14:02 66.0 °F 23.8 °F 30.06 in West 3.2 mph -999.0 mph 20 % 0 in
14:18 64.9 °F 21.6 °F 30.06 in SSE 4.7 mph -999.0 mph 19 % 0 in
14:33 66.0 °F 30.1 °F 30.05 in South 3.2 mph -999.0 mph 26 % 0 in
14:48 65.7 °F 29.9 °F 30.05 in NW 5.3 mph -999.0 mph 26 % 0 in
15:03 64.9 °F 30.1 °F 30.05 in North 5.8 mph -999.0 mph 27 % 0 in
15:19 64.6 °F 31.6 °F 30.05 in WNW 5.3 mph -999.0 mph 29 % 0 in
15:34 65.5 °F 31.5 °F 30.06 in North 3.2 mph -999.0 mph 28 % 0 in
15:50 64.9 °F 31.0 °F 30.05 in NW 4.2 mph -999.0 mph 28 % 0 in
16:05 64.2 °F 26.6 °F 30.04 in NW 2.7 mph -999.0 mph 24 % 0 in
16:20 63.7 °F 25.2 °F 30.04 in NE 5.8 mph -999.0 mph 23 % 0 in
16:35 64.4 °F 25.8 °F 30.04 in East 3.2 mph -999.0 mph 23 % 0 in
16:50 65.8 °F 25.9 °F 30.03 in SSW 4.2 mph -999.0 mph 22 % 0 in
17:06 66.4 °F 26.4 °F 30.03 in South 2.2 mph -999.0 mph 22 % 0 in
17:21 66.4 °F 25.3 °F 30.03 in WSW 3.2 mph -999.0 mph 21 % 0 in
17:36 64.4 °F 29.7 °F 30.03 in ENE 5.8 mph -999.0 mph 27 % 0 in
17:51 63.9 °F 27.4 °F 30.03 in SE 2.7 mph -999.0 mph 25 % 0 in
18:07 62.4 °F 30.5 °F 30.03 in South 3.7 mph -999.0 mph 30 % 0 in
18:22 61.2 °F 33.3 °F 30.02 in West 2.2 mph -999.0 mph 35 % 0 in
18:37 56.3 °F 36.9 °F 30.02 in NW 2.2 mph -999.0 mph 48 % 0 in
18:53 53.8 °F 37.1 °F 30.02 in East 4.2 mph -999.0 mph 53 % 0 in
19:08 51.6 °F 38.2 °F 30.02 in NE 4.2 mph -999.0 mph 60 % 0 in
19:23 50.5 °F 40.0 °F 30.01 in WNW 4.2 mph -999.0 mph 67 % 0 in
19:39 49.3 °F 41.7 °F 30.02 in WSW 1.7 mph -999.0 mph 75 % 0 in
19:54 48.6 °F 41.7 °F 30.02 in NNW 1.1 mph -999.0 mph 77 % 0 in
20:09 48.0 °F 41.1 °F 30.02 in SW 2.2 mph -999.0 mph 77 % 0 in
20:24 47.7 °F 39.8 °F 30.02 in ESE 1.7 mph -999.0 mph 74 % 0 in
20:39 47.1 °F 38.2 °F 30.02 in NW 2.7 mph -999.0 mph 71 % 0 in
20:55 46.8 °F 39.0 °F 30.03 in Calm   -999.0 mph 74 % 0 in
21:10 45.9 °F 38.1 °F 30.03 in SE 1.1 mph -999.0 mph 74 % 0 in
21:25 45.7 °F 37.9 °F 30.03 in West 2.7 mph -999.0 mph 74 % 0 in
21:41 45.5 °F 37.7 °F 30.03 in Calm   -999.0 mph 74 % 0 in
21:56 45.3 °F 35.7 °F 30.04 in SE 1.7 mph -999.0 mph 69 % 0 in
22:11 44.4 °F 31.0 °F 30.04 in SE 1.7 mph -999.0 mph 59 % 0 in
22:26 43.2 °F 25.8 °F 30.04 in South 1.7 mph -999.0 mph 50 % 0 in
22:41 42.6 °F 26.2 °F 30.04 in Calm   -999.0 mph 52 % 0 in
22:57 41.9 °F 26.0 °F 30.03 in South 2.2 mph -999.0 mph 53 % 0 in
23:12 41.2 °F 25.4 °F 30.03 in South 2.2 mph -999.0 mph 53 % 0 in
23:27 41.0 °F 26.1 °F 30.03 in Calm   -999.0 mph 55 % 0 in
23:42 40.6 °F 28.2 °F 30.03 in SSE 2.2 mph -999.0 mph 61 % 0 in
23:57 40.6 °F 29.0 °F 30.04 in South 1.7 mph -999.0 mph 63 % 0 in
Big Bear CA Weather
Compliments of Weather Underground - 1.5 mb